createdAt,value
2018-09-14T00:00:03.819Z,99.99
2018-09-14T00:01:03.800Z,99.99
2018-09-14T00:02:03.784Z,99.99
2018-09-14T00:03:03.766Z,99.99
2018-09-14T00:04:03.746Z,99.99
2018-09-14T00:05:03.734Z,99.99
2018-09-14T00:06:03.716Z,99.99
2018-09-14T00:07:03.695Z,99.99
2018-09-14T00:08:03.679Z,99.99
2018-09-14T00:09:03.663Z,99.99
2018-09-14T00:10:03.646Z,99.99
2018-09-14T00:11:03.632Z,99.99
2018-09-14T00:12:03.611Z,99.99
2018-09-14T00:13:03.596Z,99.99
2018-09-14T00:14:03.577Z,99.99
2018-09-14T00:15:03.563Z,99.99
2018-09-14T00:16:03.544Z,99.99
2018-09-14T00:17:03.529Z,99.99
2018-09-14T00:18:03.512Z,99.99
2018-09-14T00:19:03.494Z,99.99
2018-09-14T00:20:03.480Z,99.99
2018-09-14T00:21:03.467Z,99.99
2018-09-14T00:22:03.444Z,99.99
2018-09-14T00:23:03.428Z,99.99
2018-09-14T00:24:03.412Z,99.99
2018-09-14T00:25:03.394Z,99.99
2018-09-14T00:26:03.378Z,99.99
2018-09-14T00:27:03.360Z,99.99
2018-09-14T00:28:03.343Z,99.99
2018-09-14T00:29:03.329Z,99.99
2018-09-14T00:30:03.309Z,99.99
2018-09-14T00:31:03.293Z,99.99
2018-09-14T00:32:03.277Z,99.99
2018-09-14T00:33:03.258Z,99.99
2018-09-14T00:34:03.252Z,99.99
2018-09-14T00:35:03.227Z,99.99
2018-09-14T00:36:03.207Z,99.99
2018-09-14T00:37:03.191Z,99.99
2018-09-14T00:38:03.173Z,99.99
2018-09-14T00:39:03.157Z,99.99
2018-09-14T00:40:03.143Z,99.99
2018-09-14T00:41:03.124Z,99.99
2018-09-14T00:42:03.106Z,99.99
2018-09-14T00:43:03.094Z,99.99
2018-09-14T00:44:03.074Z,99.99
2018-09-14T00:45:03.057Z,99.99
2018-09-14T00:46:03.040Z,99.99
2018-09-14T00:47:03.021Z,99.99
2018-09-14T00:48:03.008Z,99.99
2018-09-14T00:49:02.988Z,99.99
2018-09-14T00:50:02.972Z,99.99
2018-09-14T00:51:02.959Z,99.99
2018-09-14T00:52:02.937Z,99.99
2018-09-14T00:53:02.922Z,99.99
2018-09-14T00:54:02.905Z,99.99
2018-09-14T00:55:02.888Z,99.99
2018-09-14T00:56:02.871Z,99.99
2018-09-14T00:57:02.854Z,99.99
2018-09-14T00:58:02.843Z,99.99
2018-09-14T00:59:02.820Z,99.99
2018-09-14T01:00:02.803Z,99.99
2018-09-14T01:01:02.787Z,99.99
2018-09-14T01:02:02.769Z,99.99
2018-09-14T01:03:02.757Z,99.99
2018-09-14T01:04:02.735Z,99.99
2018-09-14T01:05:02.723Z,99.99
2018-09-14T01:06:02.703Z,99.99
2018-09-14T01:07:02.688Z,99.99
2018-09-14T01:08:02.667Z,99.99
2018-09-14T01:09:02.651Z,99.99
2018-09-14T01:10:02.636Z,99.99
2018-09-14T01:11:02.622Z,99.99
2018-09-14T01:12:02.602Z,99.99
2018-09-14T01:13:02.583Z,99.99
2018-09-14T01:14:02.569Z,99.99
2018-09-14T01:15:02.557Z,99.99
2018-09-14T01:16:02.534Z,99.99
2018-09-14T01:17:02.629Z,99.99
2018-09-14T01:18:02.502Z,99.99
2018-09-14T01:19:02.488Z,99.99
2018-09-14T01:20:02.476Z,99.99
2018-09-14T01:21:02.449Z,99.99
2018-09-14T01:22:02.434Z,99.99
2018-09-14T01:23:02.438Z,99.99
2018-09-14T01:24:02.398Z,99.99
2018-09-14T01:25:02.388Z,99.99
2018-09-14T01:26:02.364Z,99.99
2018-09-14T01:27:02.347Z,99.99
2018-09-14T01:28:02.329Z,99.99
2018-09-14T01:29:02.315Z,99.99
2018-09-14T01:30:02.297Z,99.99
2018-09-14T01:31:02.281Z,99.99
2018-09-14T01:32:02.271Z,99.99
2018-09-14T01:33:02.246Z,99.99
2018-09-14T01:34:02.230Z,99.99
2018-09-14T01:35:02.216Z,99.99
2018-09-14T01:36:02.203Z,99.99
2018-09-14T01:37:02.179Z,99.99
2018-09-14T01:38:02.172Z,99.99
2018-09-14T01:39:02.145Z,99.99
2018-09-14T01:40:02.127Z,99.99
2018-09-14T01:41:02.112Z,99.99
2018-09-14T01:42:02.094Z,99.99
2018-09-14T01:43:02.075Z,99.99
2018-09-14T01:44:02.064Z,99.99
2018-09-14T01:45:02.044Z,99.99
2018-09-14T01:46:02.025Z,99.99
2018-09-14T01:47:02.010Z,99.99
2018-09-14T01:48:01.995Z,99.99
2018-09-14T01:49:01.974Z,99.99
2018-09-14T01:50:01.962Z,99.99
2018-09-14T01:51:01.940Z,99.99
2018-09-14T01:52:01.923Z,99.99
2018-09-14T01:53:01.918Z,99.99
2018-09-14T01:54:01.892Z,99.99
2018-09-14T01:55:01.877Z,99.99
2018-09-14T01:56:01.856Z,99.99
2018-09-14T01:57:01.839Z,99.99
2018-09-14T01:58:01.823Z,99.99
2018-09-14T01:59:01.810Z,99.99
2018-09-14T02:00:01.789Z,99.99
2018-09-14T02:01:01.770Z,99.99
2018-09-14T02:02:01.754Z,99.99
2018-09-14T02:03:01.736Z,99.99
2018-09-14T02:04:01.718Z,99.99
2018-09-14T02:05:01.702Z,99.99
2018-09-14T02:06:01.686Z,99.99
2018-09-14T02:07:01.671Z,99.99
2018-09-14T02:08:01.668Z,99.99
2018-09-14T02:09:01.634Z,99.99
2018-09-14T02:10:01.622Z,99.99
2018-09-14T02:11:01.602Z,99.99
2018-09-14T02:12:01.583Z,99.99
2018-09-14T02:13:01.566Z,99.99
2018-09-14T02:14:01.550Z,99.99
2018-09-14T02:15:01.536Z,99.99
2018-09-14T02:16:01.514Z,99.99
2018-09-14T02:17:01.499Z,99.99
2018-09-14T02:18:01.481Z,99.99
2018-09-14T02:19:01.464Z,99.99
2018-09-14T02:20:01.447Z,99.99
2018-09-14T02:21:01.433Z,99.99
2018-09-14T02:22:01.414Z,99.99
2018-09-14T02:23:01.399Z,99.99
2018-09-14T02:24:01.380Z,99.99
2018-09-14T02:25:01.363Z,99.99
2018-09-14T02:26:01.350Z,99.99
2018-09-14T02:27:01.331Z,99.99
2018-09-14T02:28:01.319Z,99.99
2018-09-14T02:29:01.295Z,99.99
2018-09-14T02:30:01.277Z,99.99
2018-09-14T02:31:01.267Z,99.99
2018-09-14T02:32:01.247Z,99.99
2018-09-14T02:33:01.228Z,99.99
2018-09-14T02:34:01.209Z,99.99
2018-09-14T02:35:01.193Z,99.99
2018-09-14T02:36:01.175Z,99.99
2018-09-14T02:37:01.163Z,99.99
2018-09-14T02:38:01.146Z,99.99
2018-09-14T02:39:01.128Z,99.99
2018-09-14T02:40:01.107Z,99.99
2018-09-14T02:41:01.105Z,99.99
2018-09-14T02:42:01.075Z,99.99
2018-09-14T02:43:01.058Z,99.99
2018-09-14T02:44:01.053Z,99.99
2018-09-14T02:45:01.025Z,99.99
2018-09-14T02:46:01.008Z,99.99
2018-09-14T02:47:00.990Z,99.99
2018-09-14T02:48:00.973Z,99.99
2018-09-14T02:49:00.970Z,99.99
2018-09-14T02:50:00.937Z,99.99
2018-09-14T02:51:00.922Z,99.99
2018-09-14T02:52:00.904Z,99.99
2018-09-14T02:53:00.890Z,99.99
2018-09-14T02:54:00.868Z,99.99
2018-09-14T02:55:00.859Z,99.99
2018-09-14T02:56:00.836Z,99.99
2018-09-14T02:57:00.827Z,99.99
2018-09-14T02:58:00.801Z,99.99
2018-09-14T02:59:00.785Z,99.99
2018-09-14T03:00:00.801Z,99.99
2018-09-14T03:01:00.750Z,99.99
2018-09-14T03:02:00.733Z,99.99
2018-09-14T03:03:00.718Z,99.99
2018-09-14T03:04:00.699Z,99.99
2018-09-14T03:05:00.688Z,99.99
2018-09-14T03:06:00.664Z,99.99
2018-09-14T03:07:00.649Z,99.99
2018-09-14T03:08:00.636Z,99.99
2018-09-14T03:09:00.615Z,99.99
2018-09-14T03:10:00.597Z,99.99
2018-09-14T03:11:00.583Z,99.99
2018-09-14T03:12:00.563Z,99.99
2018-09-14T03:13:00.549Z,99.99
2018-09-14T03:14:00.529Z,99.99
2018-09-14T03:15:00.512Z,99.99
2018-09-14T03:16:00.498Z,99.99
2018-09-14T03:17:00.478Z,99.99
2018-09-14T03:18:00.461Z,99.99
2018-09-14T03:19:00.445Z,99.99
2018-09-14T03:20:00.434Z,99.99
2018-09-14T03:21:00.411Z,99.99
2018-09-14T03:22:00.397Z,99.99
2018-09-14T03:23:00.376Z,99.99
2018-09-14T03:24:00.357Z,99.99
2018-09-14T03:25:00.342Z,99.99
2018-09-14T03:26:00.328Z,99.99
2018-09-14T03:27:00.307Z,99.99
2018-09-14T03:28:00.294Z,99.99
2018-09-14T03:29:00.273Z,99.99
2018-09-14T03:30:00.258Z,99.99
2018-09-14T03:31:00.240Z,99.99
2018-09-14T03:32:00.231Z,99.99
2018-09-14T03:33:00.208Z,99.99
2018-09-14T03:34:00.190Z,99.99
2018-09-14T03:35:00.172Z,99.99
2018-09-14T03:36:00.153Z,99.99
2018-09-14T03:37:00.137Z,99.99
2018-09-14T03:38:00.120Z,99.99
2018-09-14T03:39:00.104Z,99.99
2018-09-14T03:40:00.086Z,99.99
2018-09-14T03:41:00.476Z,99.99
2018-09-14T03:42:00.053Z,99.99
2018-09-14T03:43:00.034Z,99.99
2018-09-14T03:44:00.017Z,99.99
2018-09-14T03:45:00.000Z,99.99
2018-09-14T03:45:59.983Z,99.99
2018-09-14T03:46:59.965Z,99.99
2018-09-14T03:47:59.946Z,99.99
2018-09-14T03:48:59.931Z,99.99
2018-09-14T03:49:59.916Z,99.99
2018-09-14T03:50:59.902Z,99.99
2018-09-14T03:51:59.880Z,99.99
2018-09-14T03:52:59.866Z,99.99
2018-09-14T03:53:59.847Z,99.99
2018-09-14T03:54:59.834Z,99.99
2018-09-14T03:55:59.812Z,99.99
2018-09-14T03:56:59.799Z,99.99
2018-09-14T03:57:59.780Z,99.99
2018-09-14T03:58:59.760Z,99.99
2018-09-14T03:59:59.744Z,99.99
2018-09-14T04:00:59.724Z,99.99
2018-09-14T04:01:59.711Z,99.99
2018-09-14T04:02:59.696Z,99.99
2018-09-14T04:03:59.672Z,99.99
2018-09-14T04:04:59.655Z,99.99
2018-09-14T04:05:59.639Z,99.99
2018-09-14T04:06:59.625Z,99.99
2018-09-14T04:07:59.605Z,99.99
2018-09-14T04:08:59.590Z,99.99
2018-09-14T04:09:59.570Z,99.99
2018-09-14T04:10:59.554Z,99.99
2018-09-14T04:11:59.534Z,99.99
2018-09-14T04:12:59.522Z,99.99
2018-09-14T04:13:59.502Z,99.99
2018-09-14T04:14:59.487Z,99.99
2018-09-14T04:15:59.467Z,99.99
2018-09-14T04:16:59.456Z,99.99
2018-09-14T04:17:59.435Z,99.99
2018-09-14T04:18:59.416Z,99.99
2018-09-14T04:19:59.399Z,99.99
2018-09-14T04:20:59.379Z,99.99
2018-09-14T04:21:59.365Z,99.99
2018-09-14T04:22:59.346Z,99.99
2018-09-14T04:23:59.330Z,99.99
2018-09-14T04:24:59.313Z,99.99
2018-09-14T04:25:59.296Z,99.99
2018-09-14T04:26:59.279Z,99.99
2018-09-14T04:27:59.258Z,99.99
2018-09-14T04:28:59.241Z,99.99
2018-09-14T04:29:59.224Z,99.99
2018-09-14T04:30:59.214Z,99.99
2018-09-14T04:31:59.189Z,99.99
2018-09-14T04:32:59.175Z,99.99
2018-09-14T04:33:59.155Z,99.99
2018-09-14T04:34:59.163Z,99.99
2018-09-14T04:35:59.119Z,99.99
2018-09-14T04:36:59.104Z,99.99
2018-09-14T04:37:59.171Z,99.99
2018-09-14T04:38:59.077Z,99.99
2018-09-14T04:39:59.059Z,99.99
2018-09-14T04:40:59.034Z,99.99
2018-09-14T04:41:59.015Z,99.99
2018-09-14T04:42:59.004Z,99.99
2018-09-14T04:43:58.982Z,99.99
2018-09-14T04:44:58.966Z,99.99
2018-09-14T04:45:58.947Z,99.99
2018-09-14T04:46:58.931Z,99.99
2018-09-14T04:47:58.914Z,99.99
2018-09-14T04:48:58.897Z,99.99
2018-09-14T04:49:58.883Z,99.99
2018-09-14T04:50:58.862Z,99.99
2018-09-14T04:51:58.846Z,99.99
2018-09-14T04:52:58.828Z,99.99
2018-09-14T04:53:58.809Z,99.99
2018-09-14T04:54:58.793Z,99.99
2018-09-14T04:55:58.779Z,99.99
2018-09-14T04:56:58.759Z,99.99
2018-09-14T04:57:58.741Z,99.99
2018-09-14T04:58:58.721Z,99.99
2018-09-14T04:59:58.707Z,99.99
2018-09-14T05:00:58.688Z,99.99
2018-09-14T05:01:58.670Z,99.99
2018-09-14T05:02:58.671Z,99.99
2018-09-14T05:03:58.638Z,99.99
2018-09-14T05:04:58.620Z,99.99
2018-09-14T05:05:58.606Z,99.99
2018-09-14T05:06:58.676Z,99.99
2018-09-14T05:07:58.567Z,99.99
2018-09-14T05:08:58.550Z,99.99
2018-09-14T05:09:58.534Z,99.99
2018-09-14T05:10:58.517Z,99.99
2018-09-14T05:11:58.498Z,99.99
2018-09-14T05:12:58.479Z,99.99
2018-09-14T05:13:58.557Z,99.99
2018-09-14T05:14:58.454Z,99.99
2018-09-14T05:15:58.427Z,99.99
2018-09-14T05:16:58.412Z,99.99
2018-09-14T05:17:58.395Z,99.99
2018-09-14T05:18:58.378Z,99.99
2018-09-14T05:19:58.359Z,99.99
2018-09-14T05:20:58.342Z,99.99
2018-09-14T05:21:58.326Z,99.99
2018-09-14T05:22:58.310Z,99.99
2018-09-14T05:23:58.337Z,99.99
2018-09-14T05:24:58.345Z,99.99
2018-09-14T05:25:58.261Z,99.99
2018-09-14T05:26:58.239Z,99.99
2018-09-14T05:27:58.225Z,99.99
2018-09-14T05:28:58.205Z,99.99
2018-09-14T05:29:58.187Z,99.99
2018-09-14T05:30:58.171Z,99.99
2018-09-14T05:31:58.154Z,99.99
2018-09-14T05:32:58.136Z,99.99
2018-09-14T05:33:58.122Z,99.99
2018-09-14T05:34:58.102Z,99.99
2018-09-14T05:35:58.092Z,99.99
2018-09-14T05:36:58.071Z,99.99
2018-09-14T05:37:58.056Z,99.99
2018-09-14T05:38:58.033Z,99.99
2018-09-14T05:39:58.015Z,99.99
2018-09-14T05:40:58.001Z,99.99
2018-09-14T05:41:57.985Z,99.99
2018-09-14T05:42:57.966Z,99.99
2018-09-14T05:43:57.948Z,99.99
2018-09-14T05:44:57.929Z,99.99
2018-09-14T05:45:57.919Z,99.99
2018-09-14T05:46:57.903Z,99.99
2018-09-14T05:47:57.880Z,99.99
2018-09-14T05:48:57.864Z,99.99
2018-09-14T05:49:57.845Z,99.99
2018-09-14T05:50:57.832Z,99.99
2018-09-14T05:51:57.810Z,99.99
2018-09-14T05:52:57.796Z,99.99
2018-09-14T05:53:57.777Z,99.99
2018-09-14T05:54:57.761Z,99.99
2018-09-14T05:55:57.744Z,99.99
2018-09-14T05:56:57.728Z,99.99
2018-09-14T05:57:57.715Z,99.99
2018-09-14T05:58:57.710Z,99.99
2018-09-14T05:59:57.674Z,99.99
2018-09-14T06:00:57.667Z,99.99
2018-09-14T06:01:57.643Z,99.99
2018-09-14T06:02:57.629Z,99.99
2018-09-14T06:03:57.612Z,99.99
2018-09-14T06:04:57.592Z,99.99
2018-09-14T06:05:57.575Z,99.99
2018-09-14T06:06:57.559Z,99.99
2018-09-14T06:07:57.546Z,99.99
2018-09-14T06:08:57.525Z,99.99
2018-09-14T06:09:57.509Z,99.99
2018-09-14T06:10:57.492Z,99.99
2018-09-14T06:11:57.476Z,99.99
2018-09-14T06:12:57.458Z,99.99
2018-09-14T06:13:57.447Z,99.99
2018-09-14T06:14:57.433Z,99.99
2018-09-14T06:15:57.410Z,99.63
2018-09-14T06:16:57.455Z,98.62
2018-09-14T06:17:57.378Z,98.96
2018-09-14T06:18:57.369Z,97.71
2018-09-14T06:19:57.344Z,97.95
2018-09-14T06:20:57.327Z,97.09
2018-09-14T06:21:57.309Z,97.28
2018-09-14T06:22:57.352Z,97.47
2018-09-14T06:23:57.279Z,96.99
2018-09-14T06:24:57.263Z,96.99
2018-09-14T06:25:57.246Z,96.51
2018-09-14T06:26:57.228Z,96.61
2018-09-14T06:27:57.212Z,96.70
2018-09-14T06:28:57.199Z,96.80
2018-09-14T06:29:57.186Z,96.13
2018-09-14T06:30:57.165Z,96.03
2018-09-14T06:31:57.145Z,95.36
2018-09-14T06:32:57.129Z,95.56
2018-09-14T06:33:57.114Z,94.64
2018-09-14T06:34:57.095Z,95.03
2018-09-14T06:35:57.084Z,94.74
2018-09-14T06:36:57.109Z,94.64
2018-09-14T06:37:57.049Z,95.60
2018-09-14T06:38:57.033Z,95.60
2018-09-14T06:39:57.016Z,95.51
2018-09-14T06:40:57.000Z,94.93
2018-09-14T06:41:56.985Z,94.84
2018-09-14T06:42:56.968Z,94.93
2018-09-14T06:43:56.952Z,94.54
2018-09-14T06:44:56.953Z,94.26
2018-09-14T06:45:56.919Z,94.59
2018-09-14T06:46:56.904Z,95.65
2018-09-14T06:47:56.893Z,95.26
2018-09-14T06:48:56.873Z,94.40
2018-09-14T06:49:56.855Z,94.40
2018-09-14T06:50:56.841Z,93.63
2018-09-14T06:51:56.828Z,95.26
2018-09-14T06:52:56.810Z,95.07
2018-09-14T06:53:56.796Z,95.26
2018-09-14T06:54:56.778Z,94.54
2018-09-14T06:55:56.761Z,93.68
2018-09-14T06:56:56.746Z,93.77
2018-09-14T06:57:56.729Z,93.49
2018-09-14T06:58:56.715Z,92.72
2018-09-14T06:59:56.734Z,92.14
2018-09-14T07:00:56.683Z,91.66
2018-09-14T07:01:56.669Z,90.90
2018-09-14T07:02:56.652Z,90.84
2018-09-14T07:03:56.636Z,89.50
2018-09-14T07:04:56.620Z,89.98
2018-09-14T07:05:56.604Z,88.93
2018-09-14T07:06:56.589Z,88.35
2018-09-14T07:07:56.577Z,86.81
2018-09-14T07:08:57.777Z,86.76
2018-09-14T07:09:56.543Z,87.72
2018-09-14T07:10:56.539Z,86.85
2018-09-14T07:11:56.511Z,86.71
2018-09-14T07:12:56.497Z,86.80
2018-09-14T07:13:56.485Z,85.31
2018-09-14T07:14:56.471Z,84.39
2018-09-14T07:15:56.450Z,81.88
2018-09-14T07:16:56.439Z,81.98
2018-09-14T07:17:56.422Z,80.83
2018-09-14T07:18:56.406Z,80.73
2018-09-14T07:19:56.396Z,80.73
2018-09-14T07:20:56.379Z,82.17
2018-09-14T07:21:56.450Z,82.08
2018-09-14T07:22:56.353Z,80.83
2018-09-14T07:23:56.333Z,79.67
2018-09-14T07:24:56.483Z,80.92
2018-09-14T07:25:56.337Z,80.06
2018-09-14T07:26:56.289Z,80.63
2018-09-14T07:27:56.275Z,79.77
2018-09-14T07:28:56.268Z,79.67
2018-09-14T07:29:56.269Z,80.63
2018-09-14T07:30:56.230Z,80.54
2018-09-14T07:31:56.283Z,79.67
2018-09-14T07:32:56.203Z,79.86
2018-09-14T07:33:56.189Z,80.54
2018-09-14T07:34:56.176Z,78.52
2018-09-14T07:35:56.160Z,78.81
2018-09-14T07:36:56.146Z,79.00
2018-09-14T07:37:56.134Z,79.48
2018-09-14T07:38:56.127Z,76.98
2018-09-14T07:39:56.104Z,76.69
2018-09-14T07:40:56.097Z,79.86
2018-09-14T07:41:56.075Z,78.33
2018-09-14T07:42:56.065Z,78.65
2018-09-14T07:43:56.047Z,78.36
2018-09-14T07:44:56.035Z,75.96
2018-09-14T07:45:56.019Z,78.08
2018-09-14T07:46:56.006Z,76.25
2018-09-14T07:47:55.992Z,76.48
2018-09-14T07:48:55.980Z,75.03
2018-09-14T07:49:55.965Z,74.74
2018-09-14T07:50:55.951Z,73.33
2018-09-14T07:51:55.936Z,73.05
2018-09-14T07:52:55.922Z,71.70
2018-09-14T07:53:55.910Z,69.80
2018-09-14T07:54:55.898Z,69.35
2018-09-14T07:55:55.883Z,68.91
2018-09-14T07:56:55.869Z,66.63
2018-09-14T07:57:55.859Z,63.53
2018-09-14T07:58:55.845Z,61.11
2018-09-14T07:59:55.837Z,59.40
2018-09-14T08:00:55.817Z,59.07
2018-09-14T08:01:55.803Z,58.06
2018-09-14T08:02:55.791Z,56.51
2018-09-14T08:03:55.788Z,58.23
2018-09-14T08:04:55.767Z,56.77
2018-09-14T08:05:55.763Z,57.87
2018-09-14T08:06:55.746Z,57.81
2018-09-14T08:07:55.731Z,58.17
2018-09-14T08:08:55.725Z,60.11
2018-09-14T08:09:55.706Z,61.24
2018-09-14T08:10:55.694Z,61.92
2018-09-14T08:11:55.729Z,60.50
2018-09-14T08:12:55.671Z,59.53
2018-09-14T08:13:55.660Z,58.78
2018-09-14T08:14:55.651Z,57.98
2018-09-14T08:15:55.638Z,58.17
2018-09-14T08:16:55.631Z,58.82
2018-09-14T08:17:55.615Z,58.44
2018-09-14T08:18:55.605Z,60.34
2018-09-14T08:19:55.595Z,60.05
2018-09-14T08:20:55.582Z,60.14
2018-09-14T08:21:55.622Z,60.14
2018-09-14T08:22:55.574Z,60.41
2018-09-14T08:23:55.555Z,60.50
2018-09-14T08:24:55.539Z,60.18
2018-09-14T08:25:55.532Z,60.18
2018-09-14T08:26:55.554Z,61.83
2018-09-14T08:27:55.505Z,61.51
2018-09-14T08:28:55.496Z,63.15
2018-09-14T08:29:55.485Z,63.34
2018-09-14T08:30:55.480Z,64.69
2018-09-14T08:31:55.466Z,63.15
2018-09-14T08:32:55.450Z,63.92
2018-09-14T08:33:55.439Z,62.86
2018-09-14T08:34:55.428Z,60.54
2018-09-14T08:35:55.417Z,61.67
2018-09-14T08:36:55.406Z,61.70
2018-09-14T08:37:55.396Z,61.34
2018-09-14T08:38:55.383Z,59.83
2018-09-14T08:39:55.372Z,58.23
2018-09-14T08:40:55.366Z,53.10
2018-09-14T08:41:55.356Z,49.71
2018-09-14T08:42:55.340Z,51.47
2018-09-14T08:43:55.338Z,52.54
2018-09-14T08:44:55.318Z,52.18
2018-09-14T08:45:55.308Z,49.97
2018-09-14T08:46:55.300Z,49.27
2018-09-14T08:47:55.349Z,49.85
2018-09-14T08:48:55.286Z,51.37
2018-09-14T08:49:55.268Z,53.02
2018-09-14T08:50:55.264Z,54.16
2018-09-14T08:51:55.248Z,54.52
2018-09-14T08:52:55.237Z,55.76
2018-09-14T08:53:55.229Z,56.02
2018-09-14T08:54:55.217Z,56.67
2018-09-14T08:55:55.206Z,57.24
2018-09-14T08:56:55.198Z,58.37
2018-09-14T08:57:55.208Z,58.18
2018-09-14T08:58:55.176Z,59.22
2018-09-14T08:59:55.174Z,58.54
2018-09-14T09:00:55.271Z,60.18
2018-09-14T09:01:55.149Z,59.41
2018-09-14T09:02:55.136Z,60.86
2018-09-14T09:03:55.134Z,61.83
2018-09-14T09:04:55.116Z,61.12
2018-09-14T09:05:55.103Z,60.54
2018-09-14T09:06:55.092Z,62.37
2018-09-14T09:07:55.082Z,62.95
2018-09-14T09:08:55.077Z,61.89
2018-09-14T09:09:55.060Z,61.02
2018-09-14T09:10:55.050Z,61.51
2018-09-14T09:11:55.037Z,61.28
2018-09-14T09:12:55.028Z,62.05
2018-09-14T09:13:55.016Z,61.86
2018-09-14T09:14:55.006Z,61.38
2018-09-14T09:15:54.994Z,61.67
2018-09-14T09:16:54.986Z,63.02
2018-09-14T09:17:54.974Z,61.67
2018-09-14T09:18:54.962Z,62.73
2018-09-14T09:19:55.005Z,63.12
2018-09-14T09:20:54.942Z,61.86
2018-09-14T09:21:54.933Z,62.05
2018-09-14T09:22:54.917Z,62.82
2018-09-14T09:23:54.905Z,63.02
2018-09-14T09:24:54.893Z,62.51
2018-09-14T09:25:54.886Z,62.15
2018-09-14T09:26:54.877Z,62.15
2018-09-14T09:27:54.858Z,62.25
2018-09-14T09:28:54.848Z,61.96
2018-09-14T09:29:54.839Z,61.19
2018-09-14T09:30:54.827Z,61.80
2018-09-14T09:31:54.816Z,60.99
2018-09-14T09:32:54.804Z,60.06
2018-09-14T09:33:54.796Z,60.11
2018-09-14T09:34:54.781Z,58.40
2018-09-14T09:35:54.771Z,57.98
2018-09-14T09:36:54.760Z,54.96
2018-09-14T09:37:54.753Z,51.26
2018-09-14T09:38:54.740Z,48.03
2018-09-14T09:39:54.726Z,46.15
2018-09-14T09:40:54.717Z,44.76
2018-09-14T09:41:54.708Z,42.19
2018-09-14T09:42:54.700Z,39.78
2018-09-14T09:43:54.707Z,39.31
2018-09-14T09:44:54.681Z,39.86
2018-09-14T09:45:54.673Z,41.09
2018-09-14T09:46:54.666Z,41.38
2018-09-14T09:47:54.656Z,39.65
2018-09-14T09:48:54.649Z,41.75
2018-09-14T09:49:54.647Z,41.93
2018-09-14T09:50:54.720Z,42.57
2018-09-14T09:51:54.627Z,42.86
2018-09-14T09:52:54.624Z,43.43
2018-09-14T09:53:54.613Z,43.96
2018-09-14T09:54:54.607Z,44.53
2018-09-14T09:55:54.598Z,45.09
2018-09-14T09:56:54.593Z,44.87
2018-09-14T09:57:54.585Z,45.84
2018-09-14T09:58:54.580Z,47.01
2018-09-14T09:59:54.574Z,46.96
2018-09-14T10:00:54.565Z,44.52
2018-09-14T10:01:54.555Z,41.83
2018-09-14T10:02:54.549Z,40.23
2018-09-14T10:03:54.591Z,39.88
2018-09-14T10:04:54.538Z,37.37
2018-09-14T10:05:54.532Z,36.41
2018-09-14T10:06:54.530Z,34.62
2018-09-14T10:07:54.525Z,34.54
2018-09-14T10:08:54.513Z,33.29
2018-09-14T10:09:54.509Z,33.02
2018-09-14T10:10:54.505Z,32.34
2018-09-14T10:11:54.503Z,32.36
2018-09-14T10:12:54.494Z,33.02
2018-09-14T10:13:54.488Z,33.41
2018-09-14T10:14:54.509Z,32.14
2018-09-14T10:15:54.479Z,32.82
2018-09-14T10:16:54.473Z,33.38
2018-09-14T10:17:54.481Z,34.23
2018-09-14T10:18:54.466Z,33.74
2018-09-14T10:19:54.462Z,34.31
2018-09-14T10:20:54.513Z,35.96
2018-09-14T10:21:54.454Z,35.16
2018-09-14T10:22:54.450Z,35.42
2018-09-14T10:23:54.443Z,35.27
2018-09-14T10:24:54.438Z,37.09
2018-09-14T10:25:54.433Z,38.71
2018-09-14T10:26:54.428Z,40.06
2018-09-14T10:27:54.423Z,40.50
2018-09-14T10:28:54.486Z,41.65
2018-09-14T10:29:54.413Z,41.53
2018-09-14T10:30:54.408Z,42.87
2018-09-14T10:31:54.403Z,43.75
2018-09-14T10:32:54.397Z,44.51
2018-09-14T10:33:54.405Z,45.48
2018-09-14T10:34:54.437Z,45.75
2018-09-14T10:35:54.382Z,44.27
2018-09-14T10:36:54.404Z,44.65
2018-09-14T10:37:54.420Z,45.87
2018-09-14T10:38:54.365Z,47.42
2018-09-14T10:39:54.357Z,49.63
2018-09-14T10:40:54.409Z,49.73
2018-09-14T10:41:54.346Z,49.34
2018-09-14T10:42:54.449Z,49.24
2018-09-14T10:43:54.333Z,48.74
2018-09-14T10:44:54.325Z,49.82
2018-09-14T10:45:54.322Z,50.87
2018-09-14T10:46:54.316Z,50.09
2018-09-14T10:47:54.307Z,49.22
2018-09-14T10:48:54.406Z,50.74
2018-09-14T10:49:54.334Z,51.13
2018-09-14T10:50:54.295Z,51.23
2018-09-14T10:51:54.275Z,50.94
2018-09-14T10:52:54.268Z,49.77
2018-09-14T10:53:54.266Z,52.10
2018-09-14T10:54:54.360Z,51.13
2018-09-14T10:55:54.250Z,49.87
2018-09-14T10:56:54.244Z,50.26
2018-09-14T10:57:54.231Z,49.39
2018-09-14T10:58:54.223Z,50.07
2018-09-14T10:59:54.214Z,51.13
2018-09-14T11:00:54.270Z,51.13
2018-09-14T11:01:54.199Z,49.19
2018-09-14T11:02:54.190Z,50.65
2018-09-14T11:03:54.185Z,50.94
2018-09-14T11:04:54.174Z,50.07
2018-09-14T11:05:54.167Z,49.39
2018-09-14T11:06:54.183Z,50.62
2018-09-14T11:07:54.150Z,50.24
2018-09-14T11:08:54.141Z,50.62
2018-09-14T11:09:54.153Z,51.59
2018-09-14T11:10:54.126Z,51.18
2018-09-14T11:11:54.123Z,52.14
2018-09-14T11:12:54.132Z,51.76
2018-09-14T11:13:54.100Z,51.54
2018-09-14T11:14:54.096Z,53.45
2018-09-14T11:15:54.084Z,53.61
2018-09-14T11:16:54.073Z,54.49
2018-09-14T11:17:54.067Z,54.94
2018-09-14T11:18:54.066Z,55.81
2018-09-14T11:19:54.046Z,55.59
2018-09-14T11:20:54.039Z,56.07
2018-09-14T11:21:54.032Z,56.46
2018-09-14T11:22:54.021Z,56.26
2018-09-14T11:23:54.015Z,56.36
2018-09-14T11:24:54.028Z,57.62
2018-09-14T11:25:53.991Z,58.39
2018-09-14T11:26:53.979Z,57.81
2018-09-14T11:27:54.030Z,58.10
2018-09-14T11:28:53.959Z,57.81
2018-09-14T11:29:53.949Z,57.62
2018-09-14T11:30:53.939Z,57.32
2018-09-14T11:31:53.931Z,57.14
2018-09-14T11:32:53.921Z,58.00
2018-09-14T11:33:53.913Z,57.81
2018-09-14T11:34:53.902Z,56.84
2018-09-14T11:35:53.889Z,57.62
2018-09-14T11:36:53.884Z,57.23
2018-09-14T11:37:54.049Z,57.32
2018-09-14T11:38:53.858Z,57.35
2018-09-14T11:39:53.849Z,57.71
2018-09-14T11:40:53.838Z,58.10
2018-09-14T11:41:53.828Z,57.42
2018-09-14T11:42:53.816Z,58.10
2018-09-14T11:43:53.805Z,58.00
2018-09-14T11:44:53.795Z,58.29
2018-09-14T11:45:53.845Z,57.32
2018-09-14T11:46:53.782Z,57.23
2018-09-14T11:47:53.763Z,58.10
2018-09-14T11:48:53.754Z,57.87
2018-09-14T11:49:53.744Z,58.00
2018-09-14T11:50:53.734Z,58.97
2018-09-14T11:51:53.722Z,57.81
2018-09-14T11:52:53.711Z,57.62
2018-09-14T11:53:53.705Z,57.54
2018-09-14T11:54:53.691Z,57.64
2018-09-14T11:55:53.678Z,57.54
2018-09-14T11:56:53.667Z,57.52
2018-09-14T11:57:53.660Z,58.10
2018-09-14T11:58:53.648Z,58.10
2018-09-14T11:59:53.638Z,58.19
2018-09-14T12:00:53.626Z,58.58
2018-09-14T12:01:53.617Z,58.39
2018-09-14T12:02:53.608Z,57.62
2018-09-14T12:03:53.599Z,58.10
2018-09-14T12:04:53.581Z,57.81
2018-09-14T12:05:53.573Z,58.68
2018-09-14T12:06:53.561Z,58.97
2018-09-14T12:07:53.549Z,57.84
2018-09-14T12:08:53.542Z,57.45
2018-09-14T12:09:53.530Z,56.39
2018-09-14T12:10:53.525Z,56.39
2018-09-14T12:11:53.513Z,57.35
2018-09-14T12:12:53.497Z,56.51
2018-09-14T12:13:53.708Z,56.22
2018-09-14T12:14:53.475Z,55.93
2018-09-14T12:15:53.463Z,55.38
2018-09-14T12:16:53.454Z,54.73
2018-09-14T12:17:53.444Z,53.31
2018-09-14T12:18:53.433Z,51.76
2018-09-14T12:19:53.430Z,52.08
2018-09-14T12:20:53.411Z,52.17
2018-09-14T12:21:53.411Z,53.26
2018-09-14T12:22:53.393Z,50.87
2018-09-14T12:23:53.386Z,49.80
2018-09-14T12:24:53.379Z,49.24
2018-09-14T12:25:53.361Z,49.15
2018-09-14T12:26:53.350Z,49.92
2018-09-14T12:27:53.344Z,49.82
2018-09-14T12:28:53.334Z,48.37
2018-09-14T12:29:53.321Z,48.93
2018-09-14T12:30:53.326Z,49.61
2018-09-14T12:31:53.305Z,49.22
2018-09-14T12:32:53.294Z,49.41
2018-09-14T12:33:53.284Z,49.51
2018-09-14T12:34:53.274Z,49.68
2018-09-14T12:35:53.265Z,51.13
2018-09-14T12:36:53.256Z,51.04
2018-09-14T12:37:53.246Z,51.59
2018-09-14T12:38:53.238Z,52.75
2018-09-14T12:39:53.233Z,50.92
2018-09-14T12:40:53.217Z,51.18
2018-09-14T12:41:53.212Z,52.05
2018-09-14T12:42:53.199Z,52.92
2018-09-14T12:43:53.188Z,52.82
2018-09-14T12:44:53.179Z,52.44
2018-09-14T12:45:53.172Z,52.82
2018-09-14T12:46:53.160Z,52.73
2018-09-14T12:47:53.151Z,51.95
2018-09-14T12:48:53.143Z,52.99
2018-09-14T12:49:53.132Z,52.22
2018-09-14T12:50:53.124Z,51.83
2018-09-14T12:51:53.112Z,51.61